createdAt,value
2018-05-11T00:00:42.612Z,97.95
2018-05-11T00:01:42.638Z,97.76
2018-05-11T00:02:42.767Z,97.38
2018-05-11T00:03:42.781Z,97.38
2018-05-11T00:04:42.828Z,97.56
2018-05-11T00:05:42.686Z,97.66
2018-05-11T00:06:42.825Z,97.28
2018-05-11T00:07:42.713Z,97.76
2018-05-11T00:08:42.854Z,97.76
2018-05-11T00:09:42.843Z,97.76
2018-05-11T00:10:42.883Z,98.14
2018-05-11T00:11:42.897Z,98.24
2018-05-11T00:12:42.917Z,98.72
2018-05-11T00:13:42.812Z,98.77
2018-05-11T00:14:42.925Z,98.58
2018-05-11T00:15:42.832Z,98.29
2018-05-11T00:16:42.857Z,98.38
2018-05-11T00:17:42.872Z,98.29
2018-05-11T00:18:42.872Z,98.19
2018-05-11T00:19:43.066Z,98.29
2018-05-11T00:20:42.904Z,98.38
2018-05-11T00:21:43.043Z,98.58
2018-05-11T00:22:42.933Z,98.58
2018-05-11T00:23:43.077Z,98.29
2018-05-11T00:24:43.012Z,98.00
2018-05-11T00:25:42.984Z,97.91
2018-05-11T00:26:42.991Z,97.61
2018-05-11T00:27:43.017Z,97.42
2018-05-11T00:28:43.027Z,98.10
2018-05-11T00:29:43.147Z,97.66
2018-05-11T00:30:43.175Z,97.47
2018-05-11T00:31:43.194Z,97.47
2018-05-11T00:32:43.092Z,97.47
2018-05-11T00:33:43.106Z,97.76
2018-05-11T00:34:43.383Z,97.66
2018-05-11T00:35:43.120Z,97.76
2018-05-11T00:36:43.145Z,97.56
2018-05-11T00:37:43.280Z,98.14
2018-05-11T00:38:43.295Z,97.76
2018-05-11T00:39:43.304Z,98.14
2018-05-11T00:40:43.322Z,97.56
2018-05-11T00:41:43.336Z,98.14
2018-05-11T00:42:43.349Z,97.76
2018-05-11T00:43:43.235Z,98.05
2018-05-11T00:44:43.480Z,97.86
2018-05-11T00:45:43.391Z,97.47
2018-05-11T00:46:43.293Z,97.76
2018-05-11T00:47:43.299Z,98.14
2018-05-11T00:48:43.441Z,98.05
2018-05-11T00:49:43.324Z,99.01
2018-05-11T00:50:43.516Z,98.33
2018-05-11T00:51:43.366Z,98.29
2018-05-11T00:52:43.373Z,99.54
2018-05-11T00:53:43.394Z,99.99
2018-05-11T00:54:43.522Z,99.44
2018-05-11T00:55:43.538Z,99.82
2018-05-11T00:56:43.534Z,99.99
2018-05-11T00:57:43.441Z,99.99
2018-05-11T00:58:43.461Z,99.99
2018-05-11T00:59:43.595Z,99.54
2018-05-11T01:00:43.497Z,99.44
2018-05-11T01:01:43.774Z,99.99
2018-05-11T01:02:43.641Z,99.92
2018-05-11T01:03:43.537Z,99.82
2018-05-11T01:04:43.553Z,99.99
2018-05-11T01:05:43.681Z,99.99
2018-05-11T01:06:43.568Z,99.44
2018-05-11T01:07:43.693Z,99.82
2018-05-11T01:08:43.598Z,99.92
2018-05-11T01:09:43.620Z,99.99
2018-05-11T01:10:43.629Z,99.99
2018-05-11T01:11:43.648Z,99.44
2018-05-11T01:12:43.757Z,99.63
2018-05-11T01:13:43.696Z,99.99
2018-05-11T01:14:43.688Z,99.99
2018-05-11T01:15:43.697Z,99.99
2018-05-11T01:16:43.727Z,99.99
2018-05-11T01:17:44.003Z,99.99
2018-05-11T01:18:43.867Z,99.99
2018-05-11T01:19:43.881Z,99.99
2018-05-11T01:20:43.896Z,99.99
2018-05-11T01:21:43.783Z,99.82
2018-05-11T01:22:43.909Z,99.99
2018-05-11T01:23:43.815Z,99.99
2018-05-11T01:24:43.955Z,99.82
2018-05-11T01:25:43.841Z,99.34
2018-05-11T01:26:43.902Z,99.82
2018-05-11T01:27:43.878Z,99.99
2018-05-11T01:28:43.985Z,99.73
2018-05-11T01:29:44.028Z,99.39
2018-05-11T01:30:44.041Z,99.10
2018-05-11T01:31:44.057Z,99.39
2018-05-11T01:32:43.959Z,99.99
2018-05-11T01:33:44.021Z,99.77
2018-05-11T01:34:43.982Z,99.92
2018-05-11T01:35:44.111Z,99.99
2018-05-11T01:36:43.997Z,99.99
2018-05-11T01:37:44.139Z,99.99
2018-05-11T01:38:44.256Z,99.99
2018-05-11T01:39:44.217Z,99.99
2018-05-11T01:40:44.184Z,99.99
2018-05-11T01:41:44.072Z,99.99
2018-05-11T01:42:44.211Z,99.99
2018-05-11T01:43:44.200Z,99.99
2018-05-11T01:44:44.125Z,99.99
2018-05-11T01:45:44.129Z,99.99
2018-05-11T01:46:44.269Z,99.96
2018-05-11T01:47:44.156Z,99.77
2018-05-11T01:48:44.351Z,99.68
2018-05-11T01:49:44.312Z,99.96
2018-05-11T01:50:44.212Z,99.99
2018-05-11T01:51:44.442Z,99.96
2018-05-11T01:52:44.353Z,99.99
2018-05-11T01:53:44.367Z,99.58
2018-05-11T01:54:44.381Z,99.96
2018-05-11T01:55:44.396Z,99.99
2018-05-11T01:56:44.386Z,99.99
2018-05-11T01:57:44.424Z,99.99
2018-05-11T01:58:44.441Z,99.99
2018-05-11T01:59:44.326Z,99.99
2018-05-11T02:00:44.348Z,99.99
2018-05-11T02:01:44.463Z,99.99
2018-05-11T02:02:44.494Z,99.99
2018-05-11T02:03:44.510Z,99.99
2018-05-11T02:04:44.399Z,99.99
2018-05-11T02:05:44.538Z,99.87
2018-05-11T02:06:44.525Z,99.77
2018-05-11T02:07:44.438Z,99.99
2018-05-11T02:08:44.461Z,99.99
2018-05-11T02:09:44.465Z,99.99
2018-05-11T02:10:44.608Z,99.99
2018-05-11T02:11:44.722Z,99.99
2018-05-11T02:12:44.639Z,99.99
2018-05-11T02:13:44.535Z,99.99
2018-05-11T02:14:44.667Z,99.99
2018-05-11T02:15:44.680Z,99.99
2018-05-11T02:16:44.676Z,99.99
2018-05-11T02:17:44.593Z,99.99
2018-05-11T02:18:44.723Z,99.91
2018-05-11T02:19:44.613Z,99.44
2018-05-11T02:20:44.624Z,99.15
2018-05-11T02:21:44.811Z,98.86
2018-05-11T02:22:44.655Z,98.77
2018-05-11T02:23:44.721Z,99.15
2018-05-11T02:24:44.678Z,99.44
2018-05-11T02:25:44.692Z,99.15
2018-05-11T02:26:44.835Z,99.34
2018-05-11T02:27:44.720Z,98.77
2018-05-11T02:28:45.011Z,98.48
2018-05-11T02:29:44.755Z,98.38
2018-05-11T02:30:44.890Z,99.19
2018-05-11T02:31:44.776Z,98.43
2018-05-11T02:32:44.799Z,98.62
2018-05-11T02:33:44.956Z,98.52
2018-05-11T02:34:44.827Z,98.62
2018-05-11T02:35:44.844Z,98.24
2018-05-11T02:36:44.855Z,98.62
2018-05-11T02:37:44.873Z,98.52
2018-05-11T02:38:44.978Z,98.43
2018-05-11T02:39:44.885Z,98.24
2018-05-11T02:40:44.914Z,98.24
2018-05-11T02:41:44.918Z,98.52
2018-05-11T02:42:45.055Z,99.63
2018-05-11T02:43:45.051Z,99.82
2018-05-11T02:44:44.957Z,99.53
2018-05-11T02:45:44.979Z,99.87
2018-05-11T02:46:44.985Z,99.48
2018-05-11T02:47:45.006Z,99.39
2018-05-11T02:48:45.239Z,99.01
2018-05-11T02:49:45.153Z,99.19
2018-05-11T02:50:45.169Z,99.91
2018-05-11T02:51:45.180Z,99.99
2018-05-11T02:52:45.083Z,99.99
2018-05-11T02:54:45.111Z,99.99
2018-05-11T02:55:45.119Z,99.99
2018-05-11T02:56:45.249Z,99.99
2018-05-11T02:57:45.136Z,99.68
2018-05-11T02:58:45.326Z,99.68
2018-05-11T02:59:45.165Z,99.58
2018-05-11T03:00:45.187Z,99.48
2018-05-11T03:01:45.322Z,99.01
2018-05-11T03:02:45.315Z,98.91
2018-05-11T03:03:45.234Z,98.91
2018-05-11T03:04:45.361Z,99.99
2018-05-11T03:05:45.263Z,99.68
2018-05-11T03:06:45.258Z,99.87
2018-05-11T03:07:45.278Z,99.01
2018-05-11T03:08:45.567Z,99.10
2018-05-11T03:09:45.433Z,99.19
2018-05-11T03:10:45.318Z,99.19
2018-05-11T03:11:45.338Z,99.29
2018-05-11T03:12:45.352Z,99.19
2018-05-11T03:13:45.635Z,99.29
2018-05-11T03:14:45.373Z,98.91
2018-05-11T03:15:45.386Z,98.91
2018-05-11T03:16:45.397Z,99.19
2018-05-11T03:17:45.541Z,99.39
2018-05-11T03:18:45.742Z,99.19
2018-05-11T03:19:45.568Z,99.19
2018-05-11T03:20:45.580Z,99.29
2018-05-11T03:21:45.593Z,99.01
2018-05-11T03:22:45.607Z,98.33
2018-05-11T03:23:45.775Z,98.14
2018-05-11T03:24:45.579Z,98.72
2018-05-11T03:25:45.649Z,97.90
2018-05-11T03:26:45.536Z,98.47
2018-05-11T03:27:45.552Z,98.19
2018-05-11T03:28:45.565Z,98.28
2018-05-11T03:29:45.728Z,98.19
2018-05-11T03:30:45.599Z,98.00
2018-05-11T03:31:45.732Z,98.67
2018-05-11T03:32:45.745Z,99.34
2018-05-11T03:33:45.757Z,99.43
2018-05-11T03:34:45.925Z,99.15
2018-05-11T03:35:45.789Z,99.24
2018-05-11T03:36:45.687Z,99.05
2018-05-11T03:37:45.815Z,99.34
2018-05-11T03:38:45.828Z,99.15
2018-05-11T03:39:45.991Z,99.34
2018-05-11T03:40:45.730Z,98.86
2018-05-11T03:41:45.751Z,98.67
2018-05-11T03:42:45.756Z,98.28
2018-05-11T03:43:45.902Z,98.38
2018-05-11T03:44:46.081Z,98.28
2018-05-11T03:45:45.926Z,98.47
2018-05-11T03:46:45.939Z,98.47
2018-05-11T03:47:45.826Z,98.57
2018-05-11T03:48:45.967Z,98.57
2018-05-11T03:49:45.860Z,98.19
2018-05-11T03:50:46.144Z,98.67
2018-05-11T03:51:46.005Z,98.47
2018-05-11T03:52:45.902Z,98.76
2018-05-11T03:53:45.914Z,99.34
2018-05-11T03:54:46.051Z,99.24
2018-05-11T03:55:46.212Z,99.34
2018-05-11T03:56:46.075Z,99.43
2018-05-11T03:57:45.960Z,99.63
2018-05-11T03:58:46.102Z,99.05
2018-05-11T03:59:46.116Z,98.96
2018-05-11T04:00:46.155Z,99.53
2018-05-11T04:01:46.141Z,99.43
2018-05-11T04:02:46.032Z,99.58
2018-05-11T04:03:46.052Z,99.39
2018-05-11T04:04:46.074Z,99.34
2018-05-11T04:05:46.296Z,99.10
2018-05-11T04:06:46.097Z,99.29
2018-05-11T04:07:46.106Z,99.15
2018-05-11T04:08:46.237Z,99.63
2018-05-11T04:09:46.256Z,98.76
2018-05-11T04:10:46.237Z,98.38
2018-05-11T04:11:46.280Z,98.38
2018-05-11T04:12:46.164Z,98.38
2018-05-11T04:13:46.187Z,98.19
2018-05-11T04:14:46.206Z,98.67
2018-05-11T04:15:46.219Z,98.76
2018-05-11T04:16:46.370Z,98.47
2018-05-11T04:17:46.359Z,98.19
2018-05-11T04:18:46.253Z,98.19
2018-05-11T04:19:46.387Z,98.57
2018-05-11T04:20:46.335Z,98.19
2018-05-11T04:21:46.489Z,98.57
2018-05-11T04:22:46.303Z,98.38
2018-05-11T04:23:46.316Z,98.38
2018-05-11T04:24:46.337Z,98.86
2018-05-11T04:25:46.341Z,98.00
2018-05-11T04:26:46.481Z,98.57
2018-05-11T04:27:46.595Z,98.91
2018-05-11T04:28:46.388Z,98.67
2018-05-11T04:29:46.395Z,97.95
2018-05-11T04:30:46.539Z,98.52
2018-05-11T04:31:46.554Z,98.33
2018-05-11T04:32:46.663Z,98.14
2018-05-11T04:33:46.459Z,98.33
2018-05-11T04:34:46.477Z,98.33
2018-05-11T04:35:46.484Z,98.62
2018-05-11T04:36:46.494Z,98.52
2018-05-11T04:37:46.517Z,98.62
2018-05-11T04:38:46.668Z,98.91
2018-05-11T04:39:46.531Z,97.95
2018-05-11T04:40:46.553Z,98.62
2018-05-11T04:41:46.557Z,98.62
2018-05-11T04:42:46.617Z,98.91
2018-05-11T04:43:46.584Z,98.19
2018-05-11T04:44:46.843Z,98.43
2018-05-11T04:45:46.610Z,98.28
2018-05-11T04:46:46.631Z,98.00
2018-05-11T04:47:46.650Z,98.38
2018-05-11T04:48:46.721Z,98.47
2018-05-11T04:49:46.772Z,98.28
2018-05-11T04:50:46.684Z,98.95
2018-05-11T04:51:46.691Z,98.66
2018-05-11T04:52:46.834Z,98.47
2018-05-11T04:53:46.726Z,98.28
2018-05-11T04:54:46.893Z,98.28
2018-05-11T04:55:46.743Z,98.09
2018-05-11T04:56:46.757Z,98.47
2018-05-11T04:57:46.774Z,98.47
2018-05-11T04:58:46.784Z,98.28
2018-05-11T04:59:46.906Z,98.57
2018-05-11T05:00:46.940Z,98.38
2018-05-11T05:01:46.824Z,99.19
2018-05-11T05:02:46.839Z,98.81
2018-05-11T05:03:46.850Z,99.29
2018-05-11T05:04:46.923Z,99.29
2018-05-11T05:05:46.878Z,98.62
2018-05-11T05:06:47.017Z,98.52
2018-05-11T05:07:47.030Z,98.24
2018-05-11T05:08:47.043Z,98.71
2018-05-11T05:09:47.048Z,98.14
2018-05-11T05:10:47.071Z,98.33
2018-05-11T05:11:46.956Z,98.33
2018-05-11T05:12:47.097Z,98.52
2018-05-11T05:13:47.113Z,98.24
2018-05-11T05:14:47.106Z,98.14
2018-05-11T05:15:47.008Z,98.05
2018-05-11T05:16:47.148Z,98.14
2018-05-11T05:17:47.161Z,98.81
2018-05-11T05:18:47.065Z,98.52
2018-05-11T05:19:47.341Z,98.14
2018-05-11T05:20:47.088Z,98.24
2018-05-11T05:21:47.091Z,98.71
2018-05-11T05:22:47.115Z,98.52
2018-05-11T05:23:47.123Z,98.33
2018-05-11T05:24:47.357Z,98.24
2018-05-11T05:25:47.271Z,98.81
2018-05-11T05:26:47.155Z,98.91
2018-05-11T05:27:47.176Z,98.71
2018-05-11T05:28:47.181Z,98.57
2018-05-11T05:29:47.302Z,98.66
2018-05-11T05:30:47.209Z,98.71
2018-05-11T05:31:47.347Z,98.47
2018-05-11T05:32:47.233Z,98.91
2018-05-11T05:33:47.373Z,98.91
2018-05-11T05:34:47.273Z,98.47
2018-05-11T05:35:47.438Z,98.47
2018-05-11T05:36:47.417Z,98.71
2018-05-11T05:37:47.312Z,98.24
2018-05-11T05:38:47.326Z,98.43
2018-05-11T05:39:47.455Z,98.33
2018-05-11T05:40:47.518Z,98.52
2018-05-11T05:41:47.454Z,98.33
2018-05-11T05:42:47.493Z,98.33
2018-05-11T05:43:47.387Z,98.52
2018-05-11T05:44:47.523Z,98.05
2018-05-11T05:45:47.431Z,98.24
2018-05-11T05:46:47.595Z,98.14
2018-05-11T05:47:47.560Z,98.62
2018-05-11T05:48:47.559Z,97.95
2018-05-11T05:49:47.463Z,98.71
2018-05-11T05:50:47.485Z,98.62
2018-05-11T05:51:47.611Z,98.05
2018-05-11T05:52:47.508Z,98.05
2018-05-11T05:53:47.625Z,98.14
2018-05-11T05:54:47.523Z,98.33
2018-05-11T05:55:47.537Z,98.24
2018-05-11T05:56:47.681Z,98.28
2018-05-11T05:57:47.693Z,98.19
2018-05-11T05:58:47.590Z,98.33
2018-05-11T05:59:47.741Z,98.19
2018-05-11T06:00:47.613Z,97.61
2018-05-11T06:01:47.615Z,98.19
2018-05-11T06:02:47.637Z,98.38
2018-05-11T06:03:47.653Z,97.80
2018-05-11T06:04:47.671Z,97.52
2018-05-11T06:05:47.944Z,98.28
2018-05-11T06:06:47.817Z,98.28
2018-05-11T06:07:47.708Z,98.38
2018-05-11T06:08:47.717Z,98.28
2018-05-11T06:09:47.735Z,98.38
2018-05-11T06:10:47.981Z,98.19
2018-05-11T06:11:47.754Z,98.38
2018-05-11T06:12:47.887Z,98.19
2018-05-11T06:13:47.900Z,98.09
2018-05-11T06:14:47.787Z,98.09
2018-05-11T06:15:47.858Z,97.90
2018-05-11T06:16:47.828Z,97.90
2018-05-11T06:17:47.910Z,98.86
2018-05-11T06:18:47.837Z,98.86
2018-05-11T06:19:47.859Z,98.76
2018-05-11T06:20:48.018Z,98.57
2018-05-11T06:21:47.885Z,98.66
2018-05-11T06:22:48.020Z,98.66
2018-05-11T06:23:48.033Z,98.86
2018-05-11T06:24:48.137Z,98.86
2018-05-11T06:25:48.029Z,98.57
2018-05-11T06:26:47.948Z,98.66
2018-05-11T06:27:48.083Z,98.66
2018-05-11T06:28:47.970Z,98.24
2018-05-11T06:29:48.107Z,98.28
2018-05-11T06:30:48.223Z,98.71
2018-05-11T06:31:48.135Z,98.61
2018-05-11T06:32:48.150Z,98.52
2018-05-11T06:33:48.042Z,97.85
2018-05-11T06:34:48.177Z,98.52
2018-05-11T06:35:48.169Z,98.52
2018-05-11T06:36:48.073Z,98.71
2018-05-11T06:37:48.086Z,98.43
2018-05-11T06:38:48.229Z,98.43
2018-05-11T06:39:48.117Z,98.43
2018-05-11T06:40:48.238Z,98.33
2018-05-11T06:41:48.264Z,98.52
2018-05-11T06:42:48.164Z,98.43
2018-05-11T06:43:48.166Z,98.61
2018-05-11T06:44:48.185Z,98.61
2018-05-11T06:45:48.290Z,98.61
2018-05-11T06:46:48.329Z,98.43
2018-05-11T06:47:48.342Z,98.43
2018-05-11T06:48:48.239Z,98.24
2018-05-11T06:49:48.243Z,98.04
2018-05-11T06:50:48.481Z,98.14
2018-05-11T06:51:48.280Z,99.10
2018-05-11T06:52:48.409Z,98.24
2018-05-11T06:53:48.419Z,98.33
2018-05-11T06:54:48.304Z,99.19
2018-05-11T06:55:48.451Z,99.24
2018-05-11T06:56:48.345Z,99.05
2018-05-11T06:57:48.473Z,99.24
2018-05-11T06:58:48.355Z,98.86
2018-05-11T06:59:48.380Z,98.57
2018-05-11T07:00:48.389Z,99.05
2018-05-11T07:01:48.622Z,99.05
2018-05-11T07:02:48.409Z,98.57
2018-05-11T07:03:48.549Z,98.57
2018-05-11T07:04:48.564Z,98.28
2018-05-11T07:05:48.573Z,98.19
2018-05-11T07:06:48.611Z,98.09
2018-05-11T07:07:48.681Z,98.19
2018-05-11T07:08:48.615Z,98.66
2018-05-11T07:09:48.545Z,98.57
2018-05-11T07:10:48.638Z,98.19
2018-05-11T07:11:48.689Z,98.28
2018-05-11T07:12:48.666Z,98.43
2018-05-11T07:13:48.562Z,98.38
2018-05-11T07:14:48.585Z,98.33
2018-05-11T07:15:48.578Z,98.66
2018-05-11T07:16:48.596Z,99.05
2018-05-11T07:17:48.878Z,99.05
2018-05-11T07:18:48.742Z,99.43
2018-05-11T07:19:48.757Z,98.57
2018-05-11T07:20:48.770Z,98.57
2018-05-11T07:21:48.779Z,98.66
2018-05-11T07:22:48.675Z,99.05
2018-05-11T07:23:48.732Z,99.15
2018-05-11T07:24:48.694Z,99.05
2018-05-11T07:25:48.764Z,98.28
2018-05-11T07:26:48.851Z,98.38
2018-05-11T07:27:48.858Z,98.57
2018-05-11T07:28:48.898Z,98.38
2018-05-11T07:29:48.882Z,98.38
2018-05-11T07:30:48.770Z,98.09
2018-05-11T07:31:48.832Z,98.19
2018-05-11T07:32:48.922Z,99.24
2018-05-11T07:33:48.957Z,99.52
2018-05-11T07:34:48.909Z,98.47
2018-05-11T07:35:48.832Z,98.47
2018-05-11T07:36:48.855Z,98.28
2018-05-11T07:37:48.988Z,98.38
2018-05-11T07:38:49.038Z,98.09
2018-05-11T07:39:48.897Z,98.66
2018-05-11T07:40:49.024Z,98.47
2018-05-11T07:41:48.922Z,98.28
2018-05-11T07:42:48.927Z,98.09
2018-05-11T07:43:49.217Z,98.19
2018-05-11T07:44:49.087Z,98.86
2018-05-11T07:45:49.094Z,98.28
2018-05-11T07:46:48.979Z,98.66
2018-05-11T07:47:49.119Z,98.47
2018-05-11T07:48:49.167Z,98.09
2018-05-11T07:49:49.035Z,98.38
2018-05-11T07:50:49.033Z,98.19
2018-05-11T07:51:49.049Z,98.38
2018-05-11T07:52:49.083Z,98.47
2018-05-11T07:53:49.125Z,98.47
2018-05-11T07:54:49.081Z,98.57
2018-05-11T07:55:49.222Z,98.95
2018-05-11T07:56:49.107Z,98.71
2018-05-11T07:57:49.247Z,97.85
2018-05-11T07:58:49.246Z,98.81
2018-05-11T07:59:49.271Z,98.04
2018-05-11T08:00:49.286Z,98.71
2018-05-11T08:01:49.305Z,98.71
2018-05-11T08:02:49.310Z,98.71
2018-05-11T08:03:49.302Z,98.61
2018-05-11T08:04:49.337Z,98.61
2018-05-11T08:05:49.220Z,98.24
2018-05-11T08:06:49.243Z,98.61
2018-05-11T08:07:49.261Z,98.61
2018-05-11T08:08:49.420Z,98.61
2018-05-11T08:09:49.273Z,97.95
2018-05-11T08:10:49.302Z,98.04
2018-05-11T08:11:49.313Z,98.24
2018-05-11T08:12:49.442Z,98.71
2018-05-11T08:13:49.551Z,98.52
2018-05-11T08:14:49.345Z,98.04
2018-05-11T08:15:49.360Z,98.33
2018-05-11T08:16:49.376Z,98.33
2018-05-11T08:17:49.502Z,98.14
2018-05-11T08:18:49.517Z,98.04
2018-05-11T08:19:49.460Z,98.24
2018-05-11T08:20:49.418Z,98.14
2018-05-11T08:21:49.428Z,98.71
2018-05-11T08:22:49.443Z,98.61
2018-05-11T08:23:49.453Z,99.00
2018-05-11T08:24:49.576Z,98.52
2018-05-11T08:25:49.483Z,98.43
2018-05-11T08:26:49.683Z,99.00
2018-05-11T08:27:49.631Z,98.33
2018-05-11T08:28:49.516Z,98.71
2018-05-11T08:29:49.681Z,98.71
2018-05-11T08:30:49.543Z,98.90
2018-05-11T08:31:49.556Z,98.61
2018-05-11T08:32:49.706Z,98.04
2018-05-11T08:33:49.574Z,98.61
2018-05-11T08:34:49.702Z,98.61
2018-05-11T08:35:49.831Z,98.43
2018-05-11T08:36:49.749Z,98.33
2018-05-11T08:37:49.761Z,98.24
2018-05-11T08:38:49.773Z,98.24
2018-05-11T08:39:49.670Z,98.14
2018-05-11T08:40:49.820Z,98.04
2018-05-11T08:41:49.696Z,98.04
2018-05-11T08:42:49.824Z,98.33
2018-05-11T08:43:49.709Z,98.71
2018-05-11T08:44:49.849Z,98.33
2018-05-11T08:45:49.863Z,98.43
2018-05-11T08:46:49.859Z,98.52
2018-05-11T08:47:49.767Z,98.24
2018-05-11T08:48:49.774Z,97.85
2018-05-11T08:49:49.793Z,98.71
2018-05-11T08:50:49.926Z,98.61
2018-05-11T08:51:50.046Z,98.18
2018-05-11T08:52:49.821Z,98.24
2018-05-11T08:53:49.964Z,98.18
2018-05-11T08:54:49.866Z,97.99
2018-05-11T08:55:49.866Z,98.09
2018-05-11T08:56:50.101Z,98.09
2018-05-11T08:57:49.887Z,98.38
2018-05-11T08:58:49.901Z,98.18
2018-05-11T08:59:49.923Z,98.38
2018-05-11T09:00:49.932Z,98.18
2018-05-11T09:01:49.935Z,98.57
2018-05-11T09:02:50.054Z,98.47
2018-05-11T09:03:50.091Z,98.38
2018-05-11T09:04:50.082Z,98.18
2018-05-11T09:05:49.983Z,98.18
2018-05-11T09:06:49.999Z,97.99
2018-05-11T09:07:50.239Z,97.99
2018-05-11T09:08:50.025Z,98.38
2018-05-11T09:09:50.045Z,98.66
2018-05-11T09:10:50.054Z,97.99
2018-05-11T09:11:50.189Z,98.85
2018-05-11T09:12:50.178Z,97.99
2018-05-11T09:13:50.214Z,98.75
2018-05-11T09:14:50.099Z,98.28
2018-05-11T09:15:50.112Z,98.18
2018-05-11T09:16:50.254Z,97.99
2018-05-11T09:17:50.249Z,98.09
2018-05-11T09:18:50.162Z,98.18
2018-05-11T09:19:50.162Z,98.28
2018-05-11T09:20:50.197Z,97.99
2018-05-11T09:21:50.198Z,98.18
2018-05-11T09:22:50.375Z,97.99
2018-05-11T09:23:50.214Z,98.18
2018-05-11T09:24:50.351Z,98.66
2018-05-11T09:25:50.236Z,98.47
2018-05-11T09:26:50.262Z,98.18
2018-05-11T09:27:50.376Z,97.99
2018-05-11T09:28:50.280Z,99.04
2018-05-11T09:29:50.298Z,99.10
2018-05-11T09:30:50.426Z,99.00
2018-05-11T09:31:50.366Z,98.71
2018-05-11T09:32:50.434Z,99.29
2018-05-11T09:33:50.339Z,99.29
2018-05-11T09:34:50.362Z,99.19
2018-05-11T09:35:50.567Z,99.38
2018-05-11T09:36:50.502Z,98.90
2018-05-11T09:37:50.395Z,98.81
2018-05-11T09:38:50.508Z,99.05
2018-05-11T09:39:50.602Z,98.76
2018-05-11T09:40:50.438Z,98.95
2018-05-11T09:41:50.436Z,99.24
2018-05-11T09:42:50.449Z,99.05
2018-05-11T09:43:50.482Z,98.76
2018-05-11T09:44:50.706Z,98.28
2018-05-11T09:45:50.491Z,98.28
2018-05-11T09:46:50.513Z,98.00
2018-05-11T09:47:50.522Z,98.38
2018-05-11T09:48:50.528Z,97.71
2018-05-11T09:49:50.765Z,97.90
2018-05-11T09:50:50.550Z,98.09
2018-05-11T09:51:50.564Z,98.14
2018-05-11T09:52:50.704Z,97.75
2018-05-11T09:53:50.591Z,97.75
2018-05-11T09:54:50.661Z,97.85
2018-05-11T09:55:50.799Z,97.47
2018-05-11T09:56:50.631Z,97.75
2018-05-11T09:57:50.655Z,97.52
2018-05-11T09:58:50.659Z,97.80
2018-05-11T09:59:50.775Z,97.90
2018-05-11T10:00:50.762Z,97.38
2018-05-11T10:01:50.875Z,97.18
2018-05-11T10:02:50.722Z,96.42
2018-05-11T10:03:50.731Z,96.85
2018-05-11T10:04:50.965Z,96.37
2018-05-11T10:05:50.876Z,96.94
2018-05-11T10:06:50.894Z,96.80
2018-05-11T10:07:50.806Z,96.32
2018-05-11T10:08:50.921Z,96.51
2018-05-11T10:09:50.910Z,96.47
2018-05-11T10:10:50.840Z,96.37
2018-05-11T10:11:50.849Z,95.79
2018-05-11T10:12:50.863Z,95.89
2018-05-11T10:13:50.969Z,95.84
2018-05-11T10:14:50.988Z,96.03
2018-05-11T10:15:50.917Z,95.94
2018-05-11T10:16:50.909Z,96.08
2018-05-11T10:17:50.947Z,95.60
2018-05-11T10:18:50.959Z,97.71
2018-05-11T10:19:51.061Z,95.84
2018-05-11T10:20:51.072Z,97.04
2018-05-11T10:21:51.015Z,96.37
2018-05-11T10:22:51.067Z,96.27
2018-05-11T10:23:51.148Z,95.98
2018-05-11T10:24:51.263Z,96.27
2018-05-11T10:25:51.060Z,95.60
2018-05-11T10:26:51.071Z,96.66
2018-05-11T10:27:51.085Z,95.31
2018-05-11T10:28:51.241Z,95.40
2018-05-11T10:29:51.166Z,95.79
2018-05-11T10:30:51.141Z,95.21
2018-05-11T10:31:51.153Z,95.75
2018-05-11T10:32:51.164Z,95.36
2018-05-11T10:33:51.180Z,95.75
2018-05-11T10:34:51.257Z,95.17
2018-05-11T10:35:51.343Z,95.84
2018-05-11T10:36:51.358Z,95.45
2018-05-11T10:37:51.250Z,96.13
2018-05-11T10:38:51.265Z,95.75
2018-05-11T10:39:51.386Z,95.45
2018-05-11T10:40:51.297Z,96.03
2018-05-11T10:41:51.321Z,94.30
2018-05-11T10:42:51.459Z,95.26
2018-05-11T10:43:51.473Z,95.98
2018-05-11T10:44:51.492Z,95.02
2018-05-11T10:45:51.606Z,96.56
2018-05-11T10:46:51.526Z,95.70
2018-05-11T10:47:51.539Z,95.21
2018-05-11T10:48:51.595Z,95.79
2018-05-11T10:49:51.448Z,94.87
2018-05-11T10:50:51.610Z,94.87
2018-05-11T10:51:51.483Z,95.02
2018-05-11T10:52:51.500Z,95.12
2018-05-11T10:53:51.525Z,96.70
2018-05-11T10:54:51.570Z,94.59
2018-05-11T10:55:51.782Z,95.11
2018-05-11T10:56:51.586Z,96.46
2018-05-11T10:57:51.710Z,95.02
2018-05-11T10:58:51.728Z,93.81
2018-05-11T10:59:51.748Z,95.26
2018-05-11T11:00:51.689Z,94.43
2018-05-11T11:01:51.671Z,93.95
2018-05-11T11:02:51.672Z,93.66
2018-05-11T11:03:51.819Z,94.58
2018-05-11T11:04:51.712Z,94.68
2018-05-11T11:05:51.955Z,93.66
2018-05-11T11:06:51.761Z,92.89
2018-05-11T11:08:51.793Z,93.99
2018-05-11T11:09:51.817Z,93.03
2018-05-11T11:10:51.980Z,91.49
2018-05-11T11:11:51.849Z,92.01
2018-05-11T11:12:51.865Z,88.53
2018-05-11T11:13:51.888Z,87.08
2018-05-11T11:14:52.025Z,88.53
2018-05-11T11:15:52.027Z,89.31
2018-05-11T11:16:52.064Z,89.74
2018-05-11T11:17:52.083Z,86.74
2018-05-11T11:18:52.102Z,86.06
2018-05-11T11:19:52.151Z,86.65
2018-05-11T11:20:52.292Z,87.36
2018-05-11T11:21:52.042Z,89.11
2018-05-11T11:22:52.056Z,88.91
2018-05-11T11:23:52.202Z,85.96
2018-05-11T11:24:52.097Z,87.16
2018-05-11T11:25:52.259Z,87.45
2018-05-11T11:26:52.133Z,84.74
2018-05-11T11:27:52.281Z,85.27
2018-05-11T11:28:52.182Z,85.07
2018-05-11T11:29:52.194Z,84.00
2018-05-11T11:30:52.322Z,81.39
2018-05-11T11:31:52.364Z,80.94
2018-05-11T11:32:52.382Z,80.26
2018-05-11T11:33:52.288Z,81.48
2018-05-11T11:34:52.292Z,82.69
2018-05-11T11:35:52.467Z,82.50
2018-05-11T11:36:52.338Z,81.23
2018-05-11T11:37:52.356Z,82.59
2018-05-11T11:38:52.503Z,83.31
2018-05-11T11:39:52.396Z,80.40
2018-05-11T11:40:52.522Z,81.80
2018-05-11T11:41:52.569Z,79.57
2018-05-11T11:42:52.462Z,72.81
2018-05-11T11:43:52.607Z,72.23
2018-05-11T11:44:52.512Z,69.90
2018-05-11T11:45:52.745Z,68.77
2018-05-11T11:46:52.665Z,66.92
2018-05-11T11:47:52.570Z,66.08
2018-05-11T11:48:52.710Z,66.08
2018-05-11T11:49:52.603Z,62.13
2018-05-11T11:50:52.772Z,61.54
2018-05-11T11:51:52.770Z,61.35
2018-05-11T11:52:52.665Z,60.25
2018-05-11T11:53:52.689Z,60.44
2018-05-11T11:54:52.706Z,60.25
2018-05-11T11:55:52.888Z,59.76
2018-05-11T11:56:52.778Z,58.01
2018-05-11T11:57:52.893Z,57.82
2018-05-11T11:58:52.797Z,57.72
2018-05-11T11:59:52.824Z,56.75
2018-05-11T12:00:52.935Z,56.75
2018-05-11T12:01:52.949Z,57.23
2018-05-11T12:02:52.993Z,57.43
2018-05-11T12:03:52.887Z,56.65
2018-05-11T12:04:52.915Z,56.26
2018-05-11T12:05:53.029Z,56.36
2018-05-11T12:06:53.076Z,56.65
2018-05-11T12:07:53.096Z,57.04
2018-05-11T12:08:53.085Z,55.88
2018-05-11T12:09:53.017Z,56.39
2018-05-11T12:10:53.125Z,56.29
2018-05-11T12:11:53.065Z,56.07
2018-05-11T12:12:53.199Z,56.26
2018-05-11T12:13:53.220Z,56.46
2018-05-11T12:14:53.124Z,55.19
2018-05-11T12:15:53.361Z,55.85
2018-05-11T12:16:53.280Z,56.82
2018-05-11T12:17:53.187Z,56.82
2018-05-11T12:18:53.199Z,56.43
2018-05-11T12:19:53.213Z,56.40
2018-05-11T12:20:53.459Z,57.08
2018-05-11T12:21:53.381Z,57.15
2018-05-11T12:22:53.285Z,57.93
2018-05-11T12:23:53.290Z,59.00
2018-05-11T12:24:53.437Z,58.58
2018-05-11T12:25:53.380Z,58.97
2018-05-11T12:26:53.477Z,59.74
2018-05-11T12:27:53.382Z,59.94
2018-05-11T12:28:53.397Z,59.16
2018-05-11T12:29:53.534Z,59.55
2018-05-11T12:30:53.437Z,59.94
2018-05-11T12:31:53.553Z,59.91
2018-05-11T12:32:53.595Z,59.91
2018-05-11T12:33:53.495Z,60.00
2018-05-11T12:34:53.560Z,60.10
2018-05-11T12:35:53.537Z,60.78
2018-05-11T12:36:53.645Z,60.58
2018-05-11T12:37:53.689Z,60.00
2018-05-11T12:38:53.588Z,59.97
2018-05-11T12:39:53.613Z,60.17
2018-05-11T12:40:53.634Z,60.85
2018-05-11T12:41:53.743Z,61.14
2018-05-11T12:42:53.673Z,61.24
2018-05-11T12:43:53.680Z,61.43
2018-05-11T12:44:53.704Z,61.62
2018-05-11T12:45:53.725Z,61.49
2018-05-11T12:46:53.853Z,62.27
2018-05-11T12:47:53.754Z,61.88
2018-05-11T12:48:53.902Z,61.98
2018-05-11T12:49:53.793Z,62.27
2018-05-11T12:50:53.818Z,61.79
2018-05-11T12:51:53.943Z,62.56
2018-05-11T12:52:53.923Z,62.27
2018-05-11T12:53:53.881Z,61.79
2018-05-11T12:54:54.015Z,62.46